Terminal Aerodrome Forecast
Issued by NWS

Home | Current Version | Previous Version | Text Only | Print | Product List | Glossary On
Versions: 1 2 3 4 5 6 7 8 9 10 11 12 13
779
FTUS45 KVEF 261120
TAFDAG
TAF
KDAG 261120Z 2612/2712 25007KT P6SM SCT100
     FM261500 29007KT P6SM SCT100
     FM261700 VRB06KT P6SM SCT250
     FM261900 12008KT P6SM VCSH FEW100 BKN200
     FM270200 25014KT P6SM SCT200=

USA.gov is the U.S. government's official web portal to all federal, state and local government web resources and services.